Time;durP1;ratioP1;P1;durP2;ratioP2;P2;SDS_P1;SDS_P2;PMS_P1;PMS_P2;Temp;Humidity;BMP_temperature;BMP_pressure;BME280_temperature;BME280_humidity;BME280_pressure;Samples;Min_cycle;Max_cycle;Signal;HPM_P1;HPM_P2
2023/03/17 00:01:29;;;;;;;6.23;2.40;;;8.20;99.90;;;;;;5014638;28;20082;-75
2023/03/17 00:03:54;;;;;;;4.03;2.37;;;8.20;99.90;;;;;;5007012;28;20021;-77
2023/03/17 00:06:31;;;;;;;7.13;2.20;;;8.20;99.90;;;;;;5036094;28;20035;-75
2023/03/17 00:08:57;;;;;;;4.60;2.47;;;8.20;99.90;;;;;;5027823;28;20018;-76
2023/03/17 00:11:23;;;;;;;4.87;1.90;;;8.10;99.90;;;;;;5020832;28;20481;-76
2023/03/17 00:13:49;;;;;;;4.57;2.40;;;8.10;99.90;;;;;;5025036;28;20109;-76
2023/03/17 00:16:21;;;;;;;3.77;2.33;;;8.20;99.90;;;;;;5017476;28;20164;-75
2023/03/17 00:18:49;;;;;;;3.03;2.17;;;8.10;99.90;;;;;;5035192;28;20104;-76
2023/03/17 00:21:25;;;;;;;3.83;2.00;;;8.10;99.90;;;;;;5033276;28;20033;-75
2023/03/17 00:23:51;;;;;;;4.73;2.03;;;8.10;99.90;;;;;;5025116;28;20076;-75
2023/03/17 00:26:18;;;;;;;2.87;1.87;;;8.10;99.90;;;;;;5030968;28;20478;-75
2023/03/17 00:28:44;;;;;;;4.03;2.10;;;8.10;99.90;;;;;;5020564;28;20039;-76
2023/03/17 00:31:19;;;;;;;5.83;2.30;;;8.00;99.90;;;;;;5010335;28;20116;-76
2023/03/17 00:33:46;;;;;;;5.57;2.23;;;7.90;99.90;;;;;;5027410;28;20427;-76
2023/03/17 00:36:22;;;;;;;2.90;1.73;;;7.90;99.90;;;;;;5024323;28;20104;-76
2023/03/17 00:38:49;;;;;;;4.10;1.63;;;7.70;99.90;;;;;;5037190;28;20121;-74
2023/03/17 00:41:17;;;;;;;2.93;1.87;;;7.70;99.90;;;;;;5050817;28;20029;-76
2023/03/17 00:43:43;;;;;;;4.10;2.10;;;7.60;99.90;;;;;;5035054;28;20029;-76
2023/03/17 00:46:20;;;;;;;3.67;1.87;;;7.70;99.90;;;;;;5026386;28;20034;-75
2023/03/17 00:48:47;;;;;;;6.27;2.00;;;7.70;99.90;;;;;;5029328;28;20343;-76
2023/03/17 00:51:14;;;;;;;2.67;1.80;;;7.70;99.90;;;;;;5013558;28;20026;-75
2023/03/17 00:53:40;;;;;;;5.53;2.40;;;7.70;99.90;;;;;;5025169;28;20025;-76
2023/03/17 00:56:13;;;;;;;4.97;2.60;;;7.80;99.90;;;;;;5008386;28;20094;-76
2023/03/17 00:58:42;;;;;;;4.97;1.83;;;7.90;99.90;;;;;;5014192;28;20178;-75
2023/03/17 01:01:11;;;;;;;4.87;2.47;;;7.90;99.90;;;;;;5009764;28;20051;-76
2023/03/17 01:03:37;;;;;;;5.00;2.23;;;7.80;99.90;;;;;;5013142;28;20066;-76
2023/03/17 01:06:04;;;;;;;4.83;2.23;;;7.80;99.90;;;;;;5010380;28;20045;-75
2023/03/17 01:08:30;;;;;;;5.33;2.00;;;7.70;99.90;;;;;;5028079;28;20033;-75
2023/03/17 01:10:57;;;;;;;4.10;2.20;;;7.70;99.90;;;;;;5013876;28;20041;-75
2023/03/17 01:13:23;;;;;;;5.83;2.60;;;7.60;99.90;;;;;;5029501;28;20048;-75
2023/03/17 01:15:53;;;;;;;5.13;1.93;;;7.60;99.90;;;;;;5010659;28;20034;-75
2023/03/17 01:18:21;;;;;;;5.00;2.83;;;7.60;99.90;;;;;;5028252;28;20195;-76
2023/03/17 01:20:48;;;;;;;4.73;2.30;;;7.70;99.90;;;;;;5028732;28;20057;-76
2023/03/17 01:23:13;;;;;;;5.23;2.10;;;7.70;99.90;;;;;;5011330;28;20087;-76
2023/03/17 01:25:41;;;;;;;3.93;2.30;;;7.60;99.90;;;;;;5028564;28;20025;-76
2023/03/17 01:28:09;;;;;;;6.67;2.53;;;7.50;99.90;;;;;;5026355;28;20029;-76
2023/03/17 01:30:38;;;;;;;5.43;2.53;;;7.60;99.90;;;;;;5009928;28;20030;-75
2023/03/17 01:33:05;;;;;;;5.60;2.27;;;7.60;99.90;;;;;;5026539;28;20021;-76
2023/03/17 01:35:31;;;;;;;4.60;2.20;;;7.60;99.90;;;;;;5009362;28;20030;-76
2023/03/17 01:37:58;;;;;;;5.00;2.70;;;7.50;99.90;;;;;;5009843;28;20048;-75
2023/03/17 01:40:30;;;;;;;7.33;2.83;;;7.40;99.90;;;;;;5011659;28;20039;-75
2023/03/17 01:43:03;;;;;;;;;;;7.40;99.90;;;;;;5029099;28;20037;-75
2023/03/17 01:46:06;;;;;;;5.22;2.40;;;7.40;99.90;;;;;;5010291;28;19909;-75
2023/03/17 01:48:37;;;;;;;4.75;2.50;;;7.30;99.90;;;;;;5025162;28;20025;-76
2023/03/17 01:51:05;;;;;;;5.93;2.50;;;7.30;99.90;;;;;;5012251;28;20076;-75
2023/03/17 01:53:32;;;;;;;6.73;2.43;;;7.40;99.90;;;;;;5008814;28;20129;-76
2023/03/17 01:55:58;;;;;;;3.97;1.90;;;7.40;99.90;;;;;;5010834;28;20040;-76
2023/03/17 01:58:25;;;;;;;3.60;2.07;;;7.30;99.90;;;;;;5009128;28;20033;-76
2023/03/17 02:00:50;;;;;;;8.33;2.40;;;7.40;99.90;;;;;;5008093;28;20072;-77
2023/03/17 02:03:17;;;;;;;6.30;2.43;;;7.20;99.90;;;;;;5010939;28;20056;-76
2023/03/17 02:05:43;;;;;;;5.17;2.30;;;7.30;99.90;;;;;;5028143;28;20076;-76
2023/03/17 02:08:14;;;;;;;4.83;2.33;;;7.30;99.90;;;;;;5009331;28;20385;-76
2023/03/17 02:10:40;;;;;;;4.47;2.30;;;7.40;99.90;;;;;;5008005;28;20029;-75
2023/03/17 02:13:09;;;;;;;3.90;2.30;;;7.30;99.90;;;;;;5010088;28;20086;-77
2023/03/17 02:15:36;;;;;;;4.50;2.10;;;7.40;99.90;;;;;;5010373;28;20438;-76
2023/03/17 02:18:02;;;;;;;5.60;2.57;;;7.20;99.90;;;;;;5012309;28;20120;-76
2023/03/17 02:20:30;;;;;;;5.03;2.67;;;7.10;99.90;;;;;;5010254;28;20087;-75
2023/03/17 02:22:58;;;;;;;5.80;2.30;;;7.20;99.90;;;;;;5025228;28;20030;-76
2023/03/17 02:25:27;;;;;;;2.03;1.53;;;7.10;99.90;;;;;;5024094;28;20041;-76
2023/03/17 02:28:00;;;;;;;4.60;2.70;;;7.00;99.90;;;;;;5026400;28;20080;-77
2023/03/17 02:30:27;;;;;;;3.93;2.57;;;6.90;99.90;;;;;;5008278;28;20541;-76
2023/03/17 02:32:53;;;;;;;5.53;2.67;;;7.00;99.90;;;;;;5010115;28;20033;-74
2023/03/17 02:35:19;;;;;;;4.50;2.13;;;7.10;99.90;;;;;;5009330;28;21726;-76
2023/03/17 02:37:45;;;;;;;5.27;2.70;;;7.00;99.90;;;;;;5010307;28;20036;-76
2023/03/17 02:40:13;;;;;;;4.60;2.80;;;7.10;99.90;;;;;;5007379;28;20029;-76
2023/03/17 02:42:39;;;;;;;6.40;2.67;;;7.10;99.90;;;;;;5008509;28;20367;-75
2023/03/17 02:45:06;;;;;;;4.97;2.50;;;7.00;99.90;;;;;;5009796;28;20045;-75
2023/03/17 02:47:32;;;;;;;4.17;2.47;;;6.90;99.90;;;;;;5011851;28;20025;-74
2023/03/17 02:49:58;;;;;;;4.13;2.50;;;6.90;99.90;;;;;;5007907;28;20038;-76
2023/03/17 02:52:24;;;;;;;5.93;2.43;;;6.80;99.90;;;;;;5016392;28;20384;-76
2023/03/17 02:54:52;;;;;;;6.00;2.77;;;6.70;99.90;;;;;;5011021;28;20029;-77
2023/03/17 02:57:17;;;;;;;7.60;2.93;;;6.60;99.90;;;;;;5027851;28;20041;-76
2023/03/17 02:59:43;;;;;;;3.37;2.40;;;6.50;99.90;;;;;;5014559;28;20022;-76
2023/03/17 03:02:13;;;;;;;5.43;2.67;;;6.50;99.90;;;;;;5009462;28;20026;-76
2023/03/17 03:04:40;;;;;;;5.03;2.77;;;6.50;99.90;;;;;;5033108;28;20422;-76
2023/03/17 03:07:06;;;;;;;8.33;2.97;;;6.40;99.90;;;;;;5020222;28;20117;-77
2023/03/17 03:09:32;;;;;;;5.90;3.13;;;6.30;99.90;;;;;;5032425;28;20108;-77
2023/03/17 03:12:00;;;;;;;4.20;2.40;;;6.40;99.90;;;;;;5017164;28;20022;-77
2023/03/17 03:14:26;;;;;;;4.43;2.50;;;6.50;99.90;;;;;;5032779;28;20029;-76
2023/03/17 03:16:51;;;;;;;4.80;2.67;;;6.50;99.90;;;;;;5024714;28;20052;-76
2023/03/17 03:19:17;;;;;;;6.20;2.50;;;6.50;99.90;;;;;;5020331;28;20084;-76
2023/03/17 03:21:43;;;;;;;6.53;2.80;;;6.50;99.90;;;;;;5024790;28;20049;-76
2023/03/17 03:24:09;;;;;;;5.47;2.50;;;6.40;99.90;;;;;;5012853;28;20022;-77
2023/03/17 03:26:35;;;;;;;6.83;2.80;;;6.40;99.90;;;;;;5008739;28;20108;-76
2023/03/17 03:29:02;;;;;;;6.87;2.70;;;6.30;99.90;;;;;;5013770;28;20038;-76
2023/03/17 03:31:27;;;;;;;8.33;2.67;;;6.30;99.90;;;;;;5032167;28;20017;-76
2023/03/17 03:33:53;;;;;;;3.93;2.70;;;6.30;99.90;;;;;;5014304;28;20022;-77
2023/03/17 03:36:19;;;;;;;4.30;2.73;;;6.40;99.90;;;;;;5020743;28;20038;-76
2023/03/17 03:38:45;;;;;;;4.83;2.60;;;6.50;99.90;;;;;;5031139;28;20033;-76
2023/03/17 03:41:13;;;;;;;4.97;2.90;;;6.40;99.90;;;;;;5033776;28;20037;-76
2023/03/17 03:43:41;;;;;;;8.03;3.23;;;6.30;99.90;;;;;;5042961;28;20029;-77
2023/03/17 03:46:07;;;;;;;4.27;2.60;;;6.30;99.90;;;;;;5037940;28;20029;-76
2023/03/17 03:48:33;;;;;;;5.87;2.33;;;6.50;99.90;;;;;;5023725;28;20026;-76
2023/03/17 03:51:02;;;;;;;6.43;2.73;;;6.60;99.90;;;;;;5016154;28;20037;-76
2023/03/17 03:53:28;;;;;;;3.67;2.57;;;6.50;99.90;;;;;;5020039;28;20107;-77
2023/03/17 03:55:54;;;;;;;5.27;2.70;;;6.40;99.90;;;;;;5024202;28;20029;-76
2023/03/17 03:58:20;;;;;;;7.00;3.00;;;6.40;99.90;;;;;;5019408;28;20033;-76
2023/03/17 04:00:46;;;;;;;8.37;2.23;;;6.50;99.90;;;;;;5020620;28;20029;-77
2023/03/17 04:03:15;;;;;;;5.80;2.73;;;6.40;99.90;;;;;;5034618;28;20034;-76
2023/03/17 04:05:40;;;;;;;5.47;2.57;;;6.60;99.90;;;;;;5036636;28;20461;-76
2023/03/17 04:08:06;;;;;;;6.43;2.80;;;6.60;99.90;;;;;;5028204;28;20030;-76
2023/03/17 04:10:32;;;;;;;5.97;2.80;;;6.60;99.90;;;;;;5021629;28;20032;-76
2023/03/17 04:12:58;;;;;;;4.47;2.80;;;6.60;99.90;;;;;;5027276;28;20104;-76
2023/03/17 04:15:24;;;;;;;5.23;2.40;;;6.50;99.90;;;;;;5024489;28;20026;-75
2023/03/17 04:17:49;;;;;;;5.33;2.73;;;6.60;99.90;;;;;;5029205;28;20025;-77
2023/03/17 04:20:15;;;;;;;5.97;3.20;;;6.60;99.90;;;;;;5024058;28;20048;-76
2023/03/17 04:22:42;;;;;;;6.77;3.03;;;6.50;99.90;;;;;;5044335;28;20052;-76
2023/03/17 04:25:12;;;;;;;5.77;2.80;;;6.50;99.90;;;;;;5028862;28;20080;-76
2023/03/17 04:27:40;;;;;;;4.47;2.70;;;6.60;99.90;;;;;;5026732;28;20029;-76
2023/03/17 04:30:07;;;;;;;6.97;2.80;;;6.50;99.90;;;;;;5030098;28;20030;-77
2023/03/17 04:32:32;;;;;;;5.87;3.33;;;6.50;99.90;;;;;;5019692;28;20030;-77
2023/03/17 04:34:58;;;;;;;5.60;2.67;;;6.50;99.90;;;;;;5012115;28;20026;-76
2023/03/17 04:37:24;;;;;;;10.50;2.93;;;6.40;99.90;;;;;;5019514;28;20029;-76
2023/03/17 04:39:52;;;;;;;4.80;2.60;;;6.40;99.90;;;;;;5019730;28;20033;-76
2023/03/17 04:42:18;;;;;;;4.63;2.60;;;6.50;99.90;;;;;;5020149;28;20033;-76
2023/03/17 04:44:43;;;;;;;6.00;3.20;;;6.50;99.90;;;;;;5019867;28;20087;-77
2023/03/17 04:47:09;;;;;;;8.00;3.10;;;6.40;99.90;;;;;;5026201;28;20038;-75
2023/03/17 04:49:37;;;;;;;8.07;3.00;;;6.40;99.90;;;;;;5031516;28;20022;-77
2023/03/17 04:52:05;;;;;;;6.00;3.13;;;6.50;99.90;;;;;;5013069;28;20049;-76
2023/03/17 04:54:31;;;;;;;4.40;2.70;;;6.60;99.90;;;;;;5026988;28;20064;-76
2023/03/17 04:56:59;;;;;;;5.33;3.43;;;6.60;99.90;;;;;;5018765;28;20026;-76
2023/03/17 04:59:24;;;;;;;6.53;2.93;;;6.70;99.90;;;;;;5026897;28;20446;-76
2023/03/17 05:01:50;;;;;;;9.37;3.00;;;6.70;99.90;;;;;;5018684;28;20095;-76
2023/03/17 05:04:15;;;;;;;6.30;3.57;;;6.60;99.90;;;;;;5005179;28;20037;-76
2023/03/17 05:06:43;;;;;;;7.53;3.03;;;6.60;99.90;;;;;;5019518;28;20053;-76
2023/03/17 05:09:11;;;;;;;5.83;2.90;;;6.60;99.90;;;;;;5016318;28;20135;-77
2023/03/17 05:11:37;;;;;;;6.33;3.13;;;6.50;99.90;;;;;;5002052;28;20025;-76
2023/03/17 05:14:05;;;;;;;7.37;2.83;;;6.70;99.90;;;;;;5019545;28;20024;-76
2023/03/17 05:16:30;;;;;;;8.20;3.30;;;6.60;99.90;;;;;;5031785;28;20025;-77
2023/03/17 05:18:56;;;;;;;5.20;2.97;;;6.60;99.90;;;;;;5018994;28;20334;-76
2023/03/17 05:21:26;;;;;;;5.87;2.90;;;6.60;99.90;;;;;;5022672;28;20443;-76
2023/03/17 05:23:52;;;;;;;5.20;3.07;;;6.70;99.90;;;;;;5033560;28;20437;-75
2023/03/17 05:26:20;;;;;;;6.07;3.27;;;6.70;99.90;;;;;;5019381;28;20057;-75
2023/03/17 05:28:47;;;;;;;6.73;3.27;;;6.60;99.90;;;;;;5016410;28;20021;-76
2023/03/17 05:31:12;;;;;;;8.00;3.30;;;6.70;99.90;;;;;;5037023;28;20119;-76
2023/03/17 05:33:38;;;;;;;6.87;3.33;;;6.70;99.90;;;;;;5021568;28;20018;-76
2023/03/17 05:36:04;;;;;;;6.23;3.60;;;6.60;99.90;;;;;;5028290;28;20411;-77
2023/03/17 05:38:30;;;;;;;6.10;3.50;;;6.70;99.90;;;;;;5026828;28;20478;-76
2023/03/17 05:40:58;;;;;;;9.73;3.67;;;6.80;99.90;;;;;;5012503;28;20059;-76
2023/03/17 05:43:23;;;;;;;6.50;3.17;;;6.80;99.90;;;;;;5029933;28;20053;-76
2023/03/17 05:45:49;;;;;;;5.70;3.13;;;6.90;99.90;;;;;;5017103;28;20398;-76
2023/03/17 05:48:16;;;;;;;5.93;3.47;;;6.90;99.90;;;;;;5029645;28;20033;-76
2023/03/17 05:50:41;;;;;;;7.43;3.70;;;6.80;99.90;;;;;;5037896;28;20025;-77
2023/03/17 05:53:07;;;;;;;6.63;2.97;;;6.90;99.90;;;;;;5025784;28;20366;-75
2023/03/17 05:55:33;;;;;;;6.23;3.30;;;6.90;99.90;;;;;;5032521;28;20025;-76
2023/03/17 05:58:03;;;;;;;4.43;3.13;;;6.90;99.90;;;;;;5028350;28;20087;-75
2023/03/17 06:00:29;;;;;;;4.97;2.73;;;6.90;99.90;;;;;;5023156;28;20453;-76
2023/03/17 06:02:57;;;;;;;4.60;2.70;;;6.90;99.90;;;;;;5018466;28;20382;-76
2023/03/17 06:05:23;;;;;;;3.53;2.53;;;6.90;99.90;;;;;;5031248;28;20076;-77
2023/03/17 06:07:48;;;;;;;5.43;3.20;;;7.00;99.90;;;;;;5033530;28;20045;-76
2023/03/17 06:10:14;;;;;;;5.57;3.40;;;7.00;99.90;;;;;;5025519;28;20418;-76
2023/03/17 06:12:39;;;;;;;7.13;3.33;;;7.00;99.90;;;;;;5033206;28;20029;-76
2023/03/17 06:15:07;;;;;;;9.20;3.50;;;7.10;99.90;;;;;;5004827;28;20087;-77
2023/03/17 06:17:32;;;;;;;5.87;3.17;;;7.20;99.90;;;;;;5016916;28;20036;-77
2023/03/17 06:19:58;;;;;;;5.83;3.00;;;7.20;99.90;;;;;;5032303;28;20030;-77
2023/03/17 06:22:26;;;;;;;6.47;3.37;;;7.20;99.90;;;;;;5014773;28;20038;-76
2023/03/17 06:24:52;;;;;;;6.43;3.70;;;7.30;99.90;;;;;;5021339;28;20056;-76
2023/03/17 06:27:18;;;;;;;6.37;3.10;;;7.40;99.90;;;;;;5030337;28;20033;-76
2023/03/17 06:29:44;;;;;;;8.60;3.27;;;7.50;99.90;;;;;;5002751;28;20458;-75
2023/03/17 06:32:10;;;;;;;6.97;3.20;;;7.50;99.90;;;;;;5020044;28;20029;-76
2023/03/17 06:34:36;;;;;;;5.30;3.20;;;7.60;99.90;;;;;;5017079;28;20039;-76
2023/03/17 06:37:03;;;;;;;5.33;3.03;;;7.70;99.90;;;;;;5006307;28;20022;-77
2023/03/17 06:39:29;;;;;;;5.87;2.87;;;7.80;99.90;;;;;;5027058;28;20040;-76
2023/03/17 06:41:55;;;;;;;10.57;3.73;;;7.90;99.90;;;;;;5006796;28;20030;-76
2023/03/17 06:44:20;;;;;;;4.57;2.50;;;8.00;99.90;;;;;;5014710;28;20116;-76
2023/03/17 06:46:46;;;;;;;5.37;3.67;;;8.00;99.90;;;;;;5016761;28;20095;-77
2023/03/17 06:49:14;;;;;;;7.90;3.30;;;8.10;99.90;;;;;;5015463;28;20029;-75
2023/03/17 06:51:40;;;;;;;13.10;6.80;;;8.10;99.90;;;;;;5010332;28;20100;-76
2023/03/17 06:54:07;;;;;;;8.90;4.47;;;8.20;99.90;;;;;;5007052;28;20041;-76
2023/03/17 06:56:35;;;;;;;9.57;3.40;;;8.30;99.90;;;;;;5024274;28;20030;-75
2023/03/17 06:59:00;;;;;;;8.67;3.57;;;8.40;99.90;;;;;;5009343;28;20116;-76
2023/03/17 07:01:26;;;;;;;9.77;3.00;;;8.40;99.90;;;;;;5006693;28;20165;-76
2023/03/17 07:03:52;;;;;;;9.07;2.97;;;8.50;99.90;;;;;;5009507;28;20418;-75
2023/03/17 07:06:18;;;;;;;7.97;3.13;;;8.40;99.90;;;;;;5008254;28;20033;-77
2023/03/17 07:08:45;;;;;;;6.83;3.20;;;8.40;99.90;;;;;;5007444;28;20041;-75
2023/03/17 07:11:14;;;;;;;4.80;2.83;;;8.60;99.90;;;;;;5009338;28;20030;-76
2023/03/17 07:13:42;;;;;;;9.43;2.97;;;8.50;99.90;;;;;;5024238;28;20049;-76
2023/03/17 07:16:10;;;;;;;7.67;4.77;;;8.70;99.90;;;;;;5024933;28;20078;-76
2023/03/17 07:18:36;;;;;;;11.07;3.70;;;8.70;99.90;;;;;;5006579;28;20037;-77
2023/03/17 07:21:04;;;;;;;5.57;3.47;;;8.90;99.90;;;;;;5014486;28;20458;-75
2023/03/17 07:23:29;;;;;;;11.67;4.27;;;8.90;99.90;;;;;;5024676;28;20816;-76
2023/03/17 07:25:59;;;;;;;7.20;3.63;;;8.90;99.90;;;;;;5008288;28;20064;-75
2023/03/17 07:28:27;;;;;;;6.33;3.70;;;9.00;99.90;;;;;;5007492;28;20044;-76
2023/03/17 07:30:52;;;;;;;5.27;2.80;;;9.20;99.90;;;;;;5008308;28;20041;-75
2023/03/17 07:33:21;;;;;;;7.63;3.53;;;9.20;99.90;;;;;;5006248;28;20026;-76
2023/03/17 07:35:48;;;;;;;8.87;3.37;;;9.30;99.90;;;;;;5005689;28;20124;-77
2023/03/17 07:38:16;;;;;;;8.77;3.87;;;9.50;99.90;;;;;;5022107;28;20048;-76
2023/03/17 07:40:42;;;;;;;11.60;4.33;;;9.60;99.90;;;;;;5024792;28;20044;-76
2023/03/17 07:43:08;;;;;;;9.20;3.80;;;9.60;99.90;;;;;;5026412;28;20339;-75
2023/03/17 07:45:34;;;;;;;10.47;3.83;;;9.80;99.90;;;;;;5025057;28;20037;-77
2023/03/17 07:48:04;;;;;;;11.63;4.53;;;9.90;99.90;;;;;;5012612;28;20369;-77
2023/03/17 07:50:34;;;;;;;8.43;3.80;;;10.00;99.90;;;;;;5022837;28;20038;-75
2023/03/17 07:53:01;;;;;;;4.83;2.67;;;10.10;99.90;;;;;;5005582;28;20041;-76
2023/03/17 07:55:28;;;;;;;5.30;3.37;;;10.30;99.90;;;;;;5008634;28;20053;-77
2023/03/17 07:57:53;;;;;;;12.13;4.23;;;10.20;99.90;;;;;;5007364;28;20047;-76
2023/03/17 08:00:22;;;;;;;9.70;3.00;;;10.50;99.90;;;;;;5023461;28;20033;-77
2023/03/17 08:02:49;;;;;;;5.53;2.83;;;10.50;99.90;;;;;;5007382;28;20029;-75
2023/03/17 08:05:14;;;;;;;7.63;4.03;;;10.70;99.90;;;;;;5014169;28;20037;-76
2023/03/17 08:07:40;;;;;;;7.73;5.10;;;10.80;99.90;;;;;;5028245;28;20125;-76
2023/03/17 08:10:08;;;;;;;7.03;3.00;;;10.80;99.90;;;;;;5026440;28;20038;-76
2023/03/17 08:12:35;;;;;;;9.90;3.83;;;11.00;99.90;;;;;;5013799;28;20108;-76
2023/03/17 08:15:00;;;;;;;11.30;4.10;;;11.00;99.90;;;;;;5026675;28;20040;-77
2023/03/17 08:17:26;;;;;;;7.10;3.30;;;11.10;99.90;;;;;;5010524;28;20037;-77
2023/03/17 08:19:55;;;;;;;8.23;3.93;;;11.20;99.90;;;;;;5026381;28;20481;-75
2023/03/17 08:22:24;;;;;;;10.97;5.67;;;11.30;99.90;;;;;;5012244;28;20069;-76
2023/03/17 08:24:50;;;;;;;8.97;4.27;;;11.40;99.90;;;;;;5027676;28;20037;-75
2023/03/17 08:27:17;;;;;;;9.83;5.70;;;11.50;99.90;;;;;;5026596;28;20048;-77
2023/03/17 08:29:43;;;;;;;8.83;3.13;;;11.70;99.90;;;;;;5027377;28;20529;-75
2023/03/17 08:32:08;;;;;;;6.27;2.93;;;11.80;99.90;;;;;;5010085;28;20025;-76
2023/03/17 08:34:34;;;;;;;7.97;3.37;;;12.00;99.90;;;;;;5009718;28;20053;-77
2023/03/17 08:37:01;;;;;;;5.00;2.80;;;12.10;99.90;;;;;;5025290;28;20026;-77
2023/03/17 08:39:27;;;;;;;9.37;3.60;;;12.20;99.90;;;;;;5018490;28;20462;-77
2023/03/17 08:41:52;;;;;;;9.27;3.43;;;12.30;99.90;;;;;;5010764;28;20044;-76
2023/03/17 08:44:19;;;;;;;7.90;3.20;;;12.40;99.90;;;;;;5009995;28;20022;-75
2023/03/17 08:46:46;;;;;;;6.13;3.27;;;12.50;99.90;;;;;;5026124;28;20179;-77
2023/03/17 08:49:11;;;;;;;6.17;3.00;;;12.50;99.90;;;;;;5029529;28;20327;-77
2023/03/17 08:51:38;;;;;;;4.87;2.73;;;12.50;99.90;;;;;;5012362;28;20033;-76
2023/03/17 08:54:05;;;;;;;6.07;2.70;;;12.60;99.90;;;;;;5031597;28;20021;-77
2023/03/17 08:56:31;;;;;;;4.17;2.80;;;12.60;99.90;;;;;;5013920;28;20037;-77
2023/03/17 08:58:57;;;;;;;4.43;2.10;;;12.70;99.90;;;;;;5022166;28;20021;-77
2023/03/17 09:01:23;;;;;;;7.23;2.83;;;12.80;99.90;;;;;;5017365;28;20022;-77
2023/03/17 09:03:51;;;;;;;8.23;2.97;;;12.70;99.90;;;;;;5039339;28;20105;-77
2023/03/17 09:06:17;;;;;;;7.13;2.10;;;12.80;99.90;;;;;;5043725;28;20018;-77
2023/03/17 09:08:43;;;;;;;5.67;3.00;;;12.70;99.90;;;;;;5014457;28;20018;-77
2023/03/17 09:11:15;;;;;;;15.57;3.10;;;12.70;99.90;;;;;;5019984;28;20029;-76
2023/03/17 09:13:41;;;;;;;9.73;3.28;;;12.60;99.90;;;;;;5036183;28;20021;-77
2023/03/17 09:16:09;;;;;;;6.63;2.70;;;12.60;99.90;;;;;;5018164;28;20092;-77
2023/03/17 09:18:37;;;;;;;6.27;2.20;;;12.60;99.90;;;;;;5023658;28;20025;-77
2023/03/17 09:21:06;;;;;;;5.13;1.87;;;12.70;99.90;;;;;;5019424;28;20017;-76
2023/03/17 09:23:32;;;;;;;4.47;2.00;;;12.80;99.90;;;;;;5029585;28;20052;-77
2023/03/17 09:25:58;;;;;;;5.60;2.80;;;12.90;99.90;;;;;;5018231;28;20113;-77
2023/03/17 09:28:23;;;;;;;4.23;2.37;;;13.00;99.90;;;;;;5016218;28;20121;-77
2023/03/17 09:30:49;;;;;;;6.13;1.93;;;13.10;99.90;;;;;;5036075;28;20037;-77
2023/03/17 09:33:16;;;;;;;8.67;3.77;;;13.20;99.90;;;;;;5018786;28;20033;-77
2023/03/17 09:35:42;;;;;;;7.47;3.53;;;13.50;99.90;;;;;;5031655;28;20105;-77
2023/03/17 09:38:08;;;;;;;6.63;2.33;;;13.70;99.90;;;;;;5043132;28;20049;-77
2023/03/17 09:41:12;;;;;;;3.37;2.10;;;13.80;99.90;;;;;;5023518;28;20037;-76
2023/03/17 09:43:59;;;;;;;4.60;2.03;;;13.90;99.90;;;;;;4991315;28;20075;-78
2023/03/17 09:46:46;;;;;;;6.80;2.50;;;13.90;99.90;;;;;;5034532;28;20039;-77
2023/03/17 09:49:43;;;;;;;4.27;2.43;;;14.00;99.90;;;;;;5010916;28;20022;-76
2023/03/17 09:52:15;;;;;;;6.03;2.40;;;14.00;98.90;;;;;;4998545;28;20038;-77
2023/03/17 09:54:41;;;;;;;6.88;2.50;;;14.10;99.80;;;;;;5032861;28;20406;-77
2023/03/17 09:57:21;;;;;;;3.23;1.67;;;14.30;98.90;;;;;;5019142;28;20040;-78
2023/03/17 09:59:52;;;;;;;8.40;2.67;;;14.50;98.30;;;;;;5019132;28;20370;-77
2023/03/17 10:02:21;;;;;;;6.13;1.60;;;14.60;97.90;;;;;;5035350;28;20049;-77
2023/03/17 10:04:47;;;;;;;6.03;2.60;;;14.80;97.10;;;;;;5016780;28;20049;-77
2023/03/17 10:07:18;;;;;;;5.90;2.63;;;15.00;97.10;;;;;;5030269;28;20081;-77
2023/03/17 10:10:01;;;;;;;5.47;2.35;;;;;;;;;;5019213;28;20029;-78
2023/03/17 10:12:43;;;;;;;9.65;2.80;;;;;;;;;;5023659;28;20030;-78
2023/03/17 10:15:17;;;;;;;8.43;2.60;;;;;;;;;;5026297;28;20021;-78
2023/03/17 10:17:44;;;;;;;4.32;2.05;;;;;;;;;;5034422;28;20462;-77
2023/03/17 10:20:16;;;;;;;6.82;2.65;;;;;;;;;;5031229;28;20040;-77
2023/03/17 10:22:53;;;;;;;7.85;3.63;;;;;;;;;;5022537;28;20025;-76
2023/03/17 10:25:21;;;;;;;4.30;2.65;;;;;;;;;;5020948;28;20037;-78
2023/03/17 10:28:07;;;;;;;3.70;2.00;;;;;;;;;;5030984;28;20040;-77
2023/03/17 10:30:34;;;;;;;4.05;2.25;;;;;;;;;;5005105;28;20435;-77
2023/03/17 10:33:01;;;;;;;5.93;2.78;;;;;;;;;;5024047;28;20017;-78
2023/03/17 10:35:27;;;;;;;5.40;2.08;;;;;;;;;;5022000;28;20025;-78
2023/03/17 10:37:54;;;;;;;3.75;1.83;;;;;;;;;;5029835;28;20044;-78
2023/03/17 10:40:22;;;;;;;2.85;1.70;;;;;;;;;;5021257;28;20032;-77
2023/03/17 10:42:51;;;;;;;7.90;1.95;;;;;;;;;;5031987;28;20026;-78
2023/03/17 10:45:26;;;;;;;5.65;1.77;;;;;;;;;;5016249;28;20033;-77
2023/03/17 10:47:55;;;;;;;4.63;1.90;;;;;;;;;;5027760;28;20033;-78
2023/03/17 10:50:21;;;;;;;2.88;1.60;;;;;;;;;;5026927;28;20025;-78
2023/03/17 10:52:51;;;;;;;5.35;2.33;;;;;;;;;;5007641;28;20338;-77
2023/03/17 10:55:21;;;;;;;4.82;2.13;;;;;;;;;;5034452;28;20033;-77
2023/03/17 10:58:01;;;;;;;3.88;2.00;;;;;;;;;;5030653;28;20022;-77
2023/03/17 11:00:28;;;;;;;5.00;2.15;;;;;;;;;;5016229;28;20048;-78
2023/03/17 11:02:56;;;;;;;4.53;2.15;;;;;;;;;;5008822;28;20039;-78
2023/03/17 11:05:24;;;;;;;4.78;2.72;;;;;;;;;;5023659;28;20087;-77
2023/03/17 11:07:56;;;;;;;6.93;1.90;;;;;;;;;;5024384;28;20385;-76
2023/03/17 11:10:22;;;;;;;;;;;;;;;;;;5032155;28;20029;-78
2023/03/17 11:13:01;;;;;;;3.17;2.13;;;;;;;;;;5032241;28;19905;-77
2023/03/17 11:15:31;;;;;;;4.60;2.00;;;;;;;;;;5033227;28;20030;-78
2023/03/17 11:18:15;;;;;;;5.90;2.13;;;;;;;;;;5034869;28;20025;-77
2023/03/17 11:20:46;;;;;;;5.47;2.70;;;;;;;;;;5028478;28;20025;-77
2023/03/17 11:23:12;;;;;;;8.43;3.00;;;;;;;;;;5025856;28;20017;-77
2023/03/17 11:25:40;;;;;;;3.95;1.85;;;;;;;;;;5027629;28;20121;-77
2023/03/17 11:28:18;;;;;;;4.25;1.95;;;;;;;;;;5009577;28;20161;-78
2023/03/17 11:30:56;;;;;;;6.90;1.70;;;;;;;;;;5012144;28;20446;-78
2023/03/17 11:33:32;;;;;;;9.07;2.25;;;;;;;;;;5021387;28;20021;-78
2023/03/17 11:36:07;;;;;;;3.60;1.65;;;;;;;;;;5032377;28;20021;-77
2023/03/17 11:38:36;;;;;;;4.15;2.20;;;;;;;;;;5027979;28;20089;-77
2023/03/17 11:41:08;;;;;;;3.97;2.13;;;;;;;;;;5034166;28;20040;-77
2023/03/17 11:43:40;;;;;;;6.53;2.22;;;;;;;;;;5033665;28;20343;-78
2023/03/17 11:46:10;;;;;;;7.72;1.90;;;;;;;;;;5019715;28;20431;-78
2023/03/17 11:48:41;;;;;;;6.10;2.03;;;;;;;;;;5028770;28;20043;-78
2023/03/17 11:51:14;;;;;;;6.45;2.10;;;;;;;;;;5041957;28;20034;-78
2023/03/17 11:53:40;;;;;;;;;;;;;;;;;;5029648;28;20033;-78
2023/03/17 11:56:18;;;;;;;5.88;1.75;;;;;;;;;;5030339;28;19905;-77
2023/03/17 11:58:47;;;;;;;6.05;2.03;;;;;;;;;;5030160;28;20052;-78
2023/03/17 12:01:17;;;;;;;4.20;2.03;;;;;;;;;;5022463;28;20042;-78
2023/03/17 12:03:53;;;;;;;6.25;2.17;;;;;;;;;;5036145;28;20030;-78
2023/03/17 12:06:23;;;;;;;6.00;1.60;;;;;;;;;;5032417;28;20111;-77
2023/03/17 12:08:52;;;;;;;3.67;2.20;;;;;;;;;;5032682;28;20036;-78
2023/03/17 12:11:21;;;;;;;5.05;1.80;;;;;;;;;;5024247;28;20037;-78
2023/03/17 12:13:51;;;;;;;9.45;1.92;;;;;;;;;;5020663;28;20025;-77
2023/03/17 12:16:21;;;;;;;6.45;2.20;;;;;;;;;;5029463;28;20029;-78
2023/03/17 12:19:10;;;;;;;4.75;1.88;;;;;;;;;;5031266;28;20033;-78
2023/03/17 12:21:41;;;;;;;8.02;2.28;;;;;;;;;;5035337;28;20112;-78
2023/03/17 12:24:11;;;;;;;5.78;1.83;;;;;;;;;;5001936;28;20037;-78
2023/03/17 12:26:39;;;;;;;4.70;1.80;;;;;;;;;;5024012;28;20470;-78
2023/03/17 12:29:11;;;;;;;3.53;1.60;;;;;;;;;;5028557;28;20034;-78
2023/03/17 12:31:41;;;;;;;7.13;2.03;;;;;;;;;;5008109;28;20026;-78
2023/03/17 12:34:09;;;;;;;4.68;2.03;;;;;;;;;;5012594;28;20036;-78
2023/03/17 12:36:40;;;;;;;7.88;2.38;;;;;;;;;;5037462;28;20025;-77
2023/03/17 12:39:13;;;;;;;4.72;2.22;;;;;;;;;;5015415;28;20022;-77
2023/03/17 12:41:58;;;;;;;6.45;1.70;;;;;;;;;;5011393;28;20349;-78
2023/03/17 12:44:40;;;;;;;5.55;1.80;;;;;;;;;;5030854;28;20049;-78
2023/03/17 12:47:12;;;;;;;3.10;1.60;;;;;;;;;;5021983;28;20026;-77
2023/03/17 12:49:49;;;;;;;3.05;1.60;;;;;;;;;;5027632;28;20026;-77
2023/03/17 12:52:36;;;;;;;5.57;1.80;;;;;;;;;;5013844;28;20057;-76
2023/03/17 12:55:05;;;;;;;3.35;2.10;;;;;;;;;;5013123;28;20049;-79
2023/03/17 12:57:38;;;;;;;6.05;1.95;;;;;;;;;;5010367;28;20022;-75
2023/03/17 13:00:07;;;;;;;3.40;1.73;;;;;;;;;;5027045;28;20079;-76
2023/03/17 13:02:38;;;;;;;5.88;1.95;;;;;;;;;;5023564;28;20030;-76
2023/03/17 13:05:14;;;;;;;5.38;1.65;;;;;;;;;;5024102;28;20056;-77
2023/03/17 13:07:50;;;;;;;6.75;1.67;;;;;;;;;;5009890;28;20029;-77
2023/03/17 13:10:17;;;;;;;4.57;1.67;;;;;;;;;;5012666;28;20508;-76
2023/03/17 13:12:43;;;;;;;5.03;2.13;;;;;;;;;;5007743;28;20083;-75
2023/03/17 13:15:22;;;;;;;8.65;1.83;;;;;;;;;;5012709;28;20947;-77
2023/03/17 13:17:48;;;;;;;8.35;1.70;;;;;;;;;;5024979;28;20037;-75
2023/03/17 13:20:18;;;;;;;5.15;1.90;;;;;;;;;;5012651;28;20045;-77
2023/03/17 13:23:00;;;;;;;6.15;2.05;;;;;;;;;;5023016;28;20059;-76
2023/03/17 13:25:30;;;;;;;21.08;2.72;;;;;;;;;;5009292;28;20871;-76
2023/03/17 13:28:15;;;;;;;7.20;1.80;;;;;;;;;;5025782;28;20033;-79